Time;durP1;ratioP1;P1;durP2;ratioP2;P2;SDS_P1;SDS_P2;PMS_P1;PMS_P2;Temp;Humidity;BMP_temperature;BMP_pressure;BME280_temperature;BME280_humidity;BME280_pressure;Samples;Min_cycle;Max_cycle;Signal;HPM_P1;HPM_P2
2022/06/03 00:02:23;;;;;;;2.83;2.53;;;;;;;16.08;100.00;96489.81;4871428;28;102362;-65
2022/06/03 00:05:16;;;;;;;3.03;2.67;;;;;;;15.72;100.00;96493.09;4832107;28;102901;-66
2022/06/03 00:07:56;;;;;;;2.93;2.73;;;;;;;15.75;100.00;96481.81;4855547;28;101841;-66
2022/06/03 00:10:43;;;;;;;3.17;2.60;;;;;;;15.52;100.00;96477.13;4874844;28;102288;-66
2022/06/03 00:13:26;;;;;;;3.83;2.73;;;;;;;15.61;100.00;96487.00;4868491;28;101963;-66
2022/06/03 00:16:37;;;;;;;5.10;3.00;;;;;;;15.62;100.00;96483.25;4853187;29;102387;-66
2022/06/03 00:19:35;;;;;;;3.13;2.90;;;;;;;15.30;100.00;96480.22;4852616;29;102519;-66
2022/06/03 00:22:24;;;;;;;2.63;2.43;;;;;;;15.79;100.00;96480.16;4838889;28;102018;-66
2022/06/03 00:25:29;;;;;;;3.20;2.90;;;;;;;15.90;100.00;96477.13;4910963;28;105535;-65
2022/06/03 00:28:12;;;;;;;3.37;3.13;;;;;;;15.78;100.00;96481.22;4892368;28;102740;-66
2022/06/03 00:30:53;;;;;;;3.40;3.10;;;;;;;15.72;100.00;96472.44;4896890;28;101877;-65
2022/06/03 00:33:52;;;;;;;4.20;3.20;;;;;;;15.77;100.00;96471.59;4927819;28;102429;-65
2022/06/03 00:36:36;;;;;;;3.50;3.20;;;;;;;15.70;100.00;96465.75;4904530;28;105298;-65
2022/06/03 00:39:19;;;;;;;2.90;2.70;;;;;;;15.61;100.00;96470.09;4912111;28;102825;-66
2022/06/03 00:41:59;;;;;;;3.20;3.00;;;;;;;15.60;100.00;96460.47;4911624;28;102583;-65
2022/06/03 00:44:50;;;;;;;4.10;3.77;;;;;;;15.67;100.00;96459.06;4924150;28;102182;-66
2022/06/03 00:47:38;;;;;;;2.97;2.77;;;;;;;15.76;100.00;96461.97;4931410;28;102443;-65
2022/06/03 00:50:15;;;;;;;3.37;3.10;;;;;;;15.75;100.00;96455.78;4913524;28;101861;-66
2022/06/03 00:53:24;;;;;;;3.33;3.13;;;;;;;15.60;100.00;96453.22;4912378;28;101853;-66
2022/06/03 00:56:41;;;;;;;2.90;2.70;;;;;;;15.56;100.00;96446.03;4929731;28;105203;-66
2022/06/03 00:59:29;;;;;;;2.60;2.40;;;;;;;15.58;100.00;96446.56;4920337;28;105363;-66
2022/06/03 01:02:13;;;;;;;3.07;2.87;;;;;;;15.43;100.00;96454.69;4913663;28;101839;-66
2022/06/03 01:04:55;;;;;;;3.20;2.90;;;;;;;15.51;100.00;96444.19;4923900;28;102008;-66
2022/06/03 01:07:32;;;;;;;2.80;2.63;;;;;;;15.61;100.00;96443.31;4933986;28;101873;-65
2022/06/03 01:10:26;;;;;;;3.33;3.03;;;;;;;15.71;100.00;96445.91;4917168;28;105605;-66
2022/06/03 01:13:26;;;;;;;3.80;2.90;;;;;;;15.65;100.00;96439.00;4897547;28;103211;-66
2022/06/03 01:16:19;;;;;;;3.43;3.23;;;;;;;15.80;100.00;96436.97;4913601;28;101970;-66
2022/06/03 01:19:27;;;;;;;4.60;3.30;;;;;;;15.71;100.00;96440.53;4913808;28;105653;-66
2022/06/03 01:22:10;;;;;;;3.87;3.47;;;;;;;15.60;100.00;96436.34;4914429;28;102855;-66
2022/06/03 01:25:16;;;;;;;3.60;3.30;;;;;;;15.75;100.00;96437.00;4930288;28;101806;-66
2022/06/03 01:28:08;;;;;;;3.10;2.80;;;;;;;15.71;100.00;96437.88;4935318;28;104197;-65
2022/06/03 01:30:58;;;;;;;3.50;3.20;;;;;;;15.68;100.00;96439.22;4895354;28;101850;-65
2022/06/03 01:34:04;;;;;;;3.60;3.30;;;;;;;15.67;100.00;96426.09;4906402;28;102570;-65
2022/06/03 01:37:04;;;;;;;4.10;3.70;;;;;;;15.64;100.00;96424.78;4909953;28;105607;-65
2022/06/03 01:40:01;;;;;;;4.43;3.90;;;;;;;15.55;100.00;96422.97;4916282;28;102196;-65
2022/06/03 01:42:55;;;;;;;3.57;3.27;;;;;;;15.43;100.00;96420.66;4915248;28;102384;-66
2022/06/03 01:49:25;;;;;;;3.83;3.20;;;;;;;15.31;100.00;96433.56;4922286;28;102006;-66
2022/06/03 01:52:23;;;;;;;4.33;3.93;;;;;;;15.54;100.00;96421.38;4914725;28;101748;-66
2022/06/03 01:55:28;;;;;;;3.60;3.40;;;;;;;15.06;100.00;96419.56;4917133;28;103231;-66
2022/06/03 01:58:24;;;;;;;3.60;3.27;;;;;;;15.27;100.00;96411.09;4883875;28;102055;-66
2022/06/03 02:01:06;;;;;;;3.90;3.50;;;;;;;15.46;100.00;96403.22;4894624;28;102629;-66
2022/06/03 02:03:59;;;;;;;3.93;3.50;;;;;;;15.30;100.00;96404.38;4930675;28;102000;-65
2022/06/03 02:07:05;;;;;;;3.50;3.20;;;;;;;15.44;100.00;96410.75;4895404;28;103956;-66
2022/06/03 02:10:21;;;;;;;3.97;3.60;;;;;;;15.25;100.00;96402.53;4931702;28;105184;-66
2022/06/03 02:13:18;;;;;;;4.63;3.63;;;;;;;15.05;100.00;96404.56;4920562;28;102010;-66
2022/06/03 02:16:20;;;;;;;3.97;3.20;;;;;;;15.27;100.00;96399.59;4929983;28;102435;-66
2022/06/03 02:19:35;;;;;;;4.07;3.67;;;;;;;14.85;100.00;96400.13;4913625;28;102764;-66
2022/06/03 02:22:50;;;;;;;4.40;4.10;;;;;;;14.97;100.00;96403.28;4919536;28;102305;-66
2022/06/03 02:25:49;;;;;;;4.50;4.10;;;;;;;14.81;100.00;96409.78;4914403;28;102505;-66
2022/06/03 02:28:50;;;;;;;4.77;4.43;;;;;;;14.63;100.00;96423.81;4925536;28;102124;-66
2022/06/03 02:31:34;;;;;;;5.17;4.67;;;;;;;14.56;100.00;96427.84;4916426;28;105310;-66
2022/06/03 02:34:44;;;;;;;5.20;4.80;;;;;;;14.48;100.00;96442.59;4913530;28;102663;-66
2022/06/03 02:37:31;;;;;;;4.10;3.80;;;;;;;14.56;100.00;96447.38;4926666;28;102170;-66
2022/06/03 02:40:38;;;;;;;3.63;3.33;;;;;;;14.90;100.00;96439.47;4917099;28;105516;-66
2022/06/03 02:43:47;;;;;;;4.23;3.87;;;;;;;14.94;100.00;96435.94;4899024;28;104008;-66
2022/06/03 02:46:59;;;;;;;4.63;3.53;;;;;;;14.87;100.00;96432.00;4923239;28;102021;-66
2022/06/03 02:50:18;;;;;;;3.53;3.23;;;;;;;14.87;100.00;96432.78;4913007;28;102590;-66
2022/06/03 02:53:20;;;;;;;4.40;3.83;;;;;;;14.92;100.00;96423.91;4894469;28;101972;-66
2022/06/03 02:56:28;;;;;;;4.00;3.70;;;;;;;14.88;100.00;96429.00;4910631;28;102440;-66
2022/06/03 02:59:25;;;;;;;5.57;5.17;;;;;;;14.68;100.00;96431.00;4930437;28;106117;-66
2022/06/03 03:02:28;;;;;;;4.43;4.00;;;;;;;14.78;100.00;96422.94;4916369;28;101950;-66
2022/06/03 03:05:03;;;;;;;4.87;4.40;;;;;;;14.67;100.00;96422.16;4912063;28;105324;-66
2022/06/03 03:08:10;;;;;;;4.77;4.47;;;;;;;14.61;100.00;96423.25;4930802;28;105827;-66
2022/06/03 03:11:00;;;;;;;4.33;4.03;;;;;;;14.64;100.00;96411.19;4920203;28;102438;-66
2022/06/03 03:14:10;;;;;;;3.90;3.60;;;;;;;14.75;100.00;96412.75;4915886;28;102691;-66
2022/06/03 03:17:09;;;;;;;4.53;4.17;;;;;;;14.73;100.00;96413.06;4910479;28;102265;-66
2022/06/03 03:20:10;;;;;;;4.60;4.20;;;;;;;14.55;100.00;96415.53;4932202;28;102476;-66
2022/06/03 03:22:58;;;;;;;4.63;4.20;;;;;;;14.66;100.00;96414.44;4931700;28;102754;-66
2022/06/03 03:29:21;;;;;;;5.60;3.80;;;;;;;14.70;100.00;96415.44;4912730;28;101721;-66
2022/06/03 03:32:15;;;;;;;5.07;4.67;;;;;;;14.28;100.00;96421.25;4930868;28;103194;-66
2022/06/03 03:35:28;;;;;;;4.80;4.10;;;;;;;14.50;100.00;96431.63;4925836;28;102111;-66
2022/06/03 03:38:55;;;;;;;5.13;4.63;;;;;;;14.38;100.00;96442.63;4911514;28;103926;-66
2022/06/03 03:41:58;;;;;;;7.93;5.37;;;;;;;14.08;100.00;96452.56;4875159;28;102877;-66
2022/06/03 03:45:10;;;;;;;4.93;4.50;;;;;;;14.40;100.00;96445.03;4855968;28;105408;-66
2022/06/03 03:51:13;;;;;;;6.60;5.70;;;;;;;14.72;100.00;96440.09;4856380;28;102080;-65
2022/06/03 03:54:28;;;;;;;5.10;4.60;;;;;;;14.79;100.00;96430.69;4837843;29;105968;-66
2022/06/03 03:57:27;;;;;;;4.50;3.77;;;;;;;14.95;100.00;96420.69;4853117;29;102830;-66
2022/06/03 04:00:10;;;;;;;4.37;3.97;;;;;;;14.87;100.00;96414.03;4842031;28;102219;-66
2022/06/03 04:03:24;;;;;;;4.60;4.20;;;;;;;14.87;100.00;96415.94;4856055;28;106193;-68
2022/06/03 04:06:23;;;;;;;4.57;4.20;;;;;;;14.70;100.00;96426.16;4826544;28;103121;-66
2022/06/03 04:09:29;;;;;;;5.80;5.13;;;;;;;14.33;100.00;96447.19;4855972;28;102029;-68
2022/06/03 04:12:08;;;;;;;6.33;5.73;;;;;;;14.32;100.00;96453.59;4870708;28;102718;-68
2022/06/03 04:15:13;;;;;;;6.83;6.23;;;;;;;14.39;100.00;96451.47;4903162;28;101934;-68
2022/06/03 04:18:21;;;;;;;6.43;5.77;;;;;;;14.80;100.00;96447.53;4912340;28;102929;-67
2022/06/03 04:21:17;;;;;;;6.40;5.90;;;;;;;15.29;100.00;96434.94;4925753;28;102789;-67
2022/06/03 04:24:22;;;;;;;6.10;5.60;;;;;;;15.36;100.00;96455.00;4927154;28;101841;-67
2022/06/03 04:27:17;;;;;;;6.97;6.37;;;;;;;15.22;100.00;96454.00;4912128;28;102425;-67
2022/06/03 04:30:08;;;;;;;6.73;6.23;;;;;;;15.29;100.00;96448.31;4912132;28;101987;-66
2022/06/03 04:33:08;;;;;;;6.27;5.73;;;;;;;15.62;100.00;96445.72;4910922;28;102219;-67
2022/06/03 04:36:12;;;;;;;6.00;5.50;;;;;;;15.80;100.00;96444.22;4933248;28;102506;-66
2022/06/03 04:39:19;;;;;;;6.40;5.80;;;;;;;16.03;100.00;96451.53;4927330;28;103468;-67
2022/06/03 04:42:37;;;;;;;7.07;6.37;;;;;;;15.71;100.00;96459.31;4912772;28;105427;-66
2022/06/03 04:45:39;;;;;;;6.87;6.27;;;;;;;15.83;100.00;96462.44;4857971;28;106170;-67
2022/06/03 04:48:46;;;;;;;6.50;5.90;;;;;;;15.86;100.00;96459.97;4857042;28;101973;-67
2022/06/03 04:51:47;;;;;;;11.87;5.60;;;;;;;16.08;100.00;96459.53;4862791;28;105045;-67
2022/06/03 04:54:46;;;;;;;6.63;6.13;;;;;;;16.21;100.00;96456.16;4890898;28;105148;-67
2022/06/03 04:57:48;;;;;;;6.47;5.97;;;;;;;16.07;100.00;96460.63;4900342;28;101989;-67
2022/06/03 05:00:24;;;;;;;6.17;5.67;;;;;;;16.16;100.00;96461.59;4914133;28;104796;-67
2022/06/03 05:03:50;;;;;;;6.00;5.43;;;;;;;16.37;100.00;96460.28;4922674;28;102380;-66
2022/06/03 05:06:57;;;;;;;6.30;5.80;;;;;;;16.67;100.00;96449.25;4890090;28;105293;-67
2022/06/03 05:09:57;;;;;;;6.73;6.03;;;;;;;16.68;100.00;96440.91;4931650;28;105141;-67
2022/06/03 05:13:08;;;;;;;6.80;6.30;;;;;;;16.71;100.00;96440.34;4911487;28;102137;-67
2022/06/03 05:16:22;;;;;;;6.60;6.00;;;;;;;16.82;100.00;96444.50;4894543;28;105678;-67
2022/06/03 05:19:39;;;;;;;6.50;6.00;;;;;;;16.96;100.00;96450.75;4910278;28;105875;-67
2022/06/03 05:22:50;;;;;;;5.57;5.07;;;;;;;17.00;100.00;96443.72;4925959;28;102063;-67
2022/06/03 05:25:53;;;;;;;5.40;4.90;;;;;;;17.22;100.00;96438.56;4913251;28;103856;-67
2022/06/03 05:29:01;;;;;;;5.57;5.07;;;;;;;17.22;100.00;96437.78;4886800;28;106848;-67
2022/06/03 05:32:07;;;;;;;5.03;4.63;;;;;;;17.59;100.00;96443.97;4913798;28;104208;-67
2022/06/03 05:35:21;;;;;;;4.83;4.43;;;;;;;17.77;100.00;96426.19;4909639;28;105734;-67
2022/06/03 05:38:19;;;;;;;5.00;4.60;;;;;;;17.68;100.00;96427.94;4933733;28;101864;-67
2022/06/03 05:42:23;;;;;;;4.70;4.30;;;;;;;18.08;100.00;96429.94;4922181;28;102735;-67
2022/06/03 05:44:17;;;;;;;4.17;3.87;;;;;;;18.25;100.00;96422.13;4912297;28;105441;-68
2022/06/03 05:46:56;;;;;;;4.13;3.57;;;;;;;18.26;100.00;96415.63;4932786;28;101940;-67
2022/06/03 05:49:40;;;;;;;4.17;3.83;;;;;;;18.20;100.00;96430.28;4923582;28;105327;-67
2022/06/03 05:52:35;;;;;;;4.10;3.70;;;;;;;18.49;100.00;96420.06;4913072;28;103276;-67
2022/06/03 05:55:45;;;;;;;4.40;3.53;;;;;;;18.37;100.00;96423.25;4918125;28;101719;-67
2022/06/03 05:58:32;;;;;;;5.03;3.70;;;;;;;18.33;100.00;96421.44;4914995;28;102965;-72
2022/06/03 06:01:27;;;;;;;4.13;3.60;;;;;;;18.68;100.00;96416.16;4913944;28;102005;-68
2022/06/03 06:04:02;;;;;;;4.03;3.73;;;;;;;18.68;100.00;96418.84;4924336;28;105744;-67
2022/06/03 06:06:38;;;;;;;4.27;3.97;;;;;;;18.88;100.00;96417.63;4921735;28;104584;-67
2022/06/03 06:09:22;;;;;;;3.70;3.23;;;;;;;19.04;100.00;96411.63;4914272;28;102061;-66
2022/06/03 06:12:05;;;;;;;4.03;3.60;;;;;;;18.91;100.00;96425.13;4925834;28;102250;-67
2022/06/03 06:14:53;;;;;;;3.63;3.30;;;;;;;18.88;100.00;96410.38;4931614;28;105558;-67
2022/06/03 06:17:51;;;;;;;4.93;3.87;;;;;;;18.84;100.00;96400.47;4930000;28;102073;-66
2022/06/03 06:20:33;;;;;;;4.37;3.97;;;;;;;19.01;100.00;96395.28;4934606;28;105258;-67
2022/06/03 06:23:04;;;;;;;3.67;3.40;;;;;;;19.35;100.00;96406.38;4921540;28;101973;-66
2022/06/03 06:25:39;;;;;;;3.90;3.60;;;;;;;19.76;100.00;96394.31;4912908;28;105072;-67
2022/06/03 06:28:13;;;;;;;3.47;3.27;;;;;;;20.05;100.00;96393.84;4930503;28;105417;-67
2022/06/03 06:30:56;;;;;;;3.57;3.27;;;;;;;19.59;100.00;96401.50;4931110;28;102399;-66
2022/06/03 06:33:56;;;;;;;3.50;3.30;;;;;;;19.76;100.00;96399.72;4912449;28;105497;-66
2022/06/03 06:37:01;;;;;;;4.10;3.70;;;;;;;19.95;100.00;96402.22;4888775;28;105836;-67
2022/06/03 06:39:52;;;;;;;3.70;3.40;;;;;;;20.32;100.00;96410.69;4929851;28;102098;-67
2022/06/03 06:42:33;;;;;;;4.07;3.50;;;;;;;20.14;100.00;96409.03;4915140;28;105253;-65
2022/06/03 06:45:25;;;;;;;3.80;3.50;;;;;;;19.81;100.00;96404.19;4915106;28;103028;-66
2022/06/03 06:51:33;;;;;;;3.43;3.13;;;;;;;20.53;100.00;96397.41;4917669;28;105679;-68
2022/06/03 06:54:06;;;;;;;3.47;3.17;;;;;;;20.45;100.00;96398.19;4918837;28;102217;-67
2022/06/03 06:56:42;;;;;;;3.63;3.30;;;;;;;19.67;100.00;96396.16;4914733;28;102662;-67
2022/06/03 06:59:19;;;;;;;3.57;3.27;;;;;;;20.19;100.00;96394.56;4913193;28;103050;-67
2022/06/03 07:01:51;;;;;;;3.00;2.67;;;;;;;20.77;100.00;96392.41;4921225;28;101971;-67
2022/06/03 07:04:25;;;;;;;3.83;2.80;;;;;;;21.09;100.00;96387.41;4913418;28;105452;-67
2022/06/03 07:07:04;;;;;;;4.60;3.47;;;;;;;20.18;100.00;96395.69;4912389;28;105450;-68
2022/06/03 07:09:42;;;;;;;5.50;3.23;;;;;;;20.41;100.00;96391.81;4934510;28;102409;-68
2022/06/03 07:12:13;;;;;;;3.40;3.10;;;;;;;20.03;100.00;96396.84;4929881;28;105831;-68
2022/06/03 07:15:00;;;;;;;3.30;3.00;;;;;;;20.57;100.00;96406.50;4931134;28;101854;-68
2022/06/03 07:20:51;;;;;;;3.70;3.40;;;;;;;20.47;100.00;96401.38;4926794;28;105775;-67
2022/06/03 07:23:23;;;;;;;3.00;2.80;;;;;;;20.78;100.00;96402.94;4923933;28;102333;-68
2022/06/03 07:26:08;;;;;;;3.33;3.03;;;;;;;20.69;100.00;96393.97;4911867;28;104935;-68
2022/06/03 07:28:42;;;;;;;3.23;2.97;;;;;;;20.98;100.00;96401.56;4921933;28;103215;-68
2022/06/03 07:31:16;;;;;;;3.00;2.67;;;;;;;21.41;100.00;96394.28;4933968;28;101862;-68
2022/06/03 07:33:55;;;;;;;2.70;2.50;;;;;;;21.48;100.00;96400.00;4928604;28;105701;-68
2022/06/03 07:36:41;;;;;;;2.93;2.50;;;;;;;21.55;100.00;96386.78;4931156;28;102190;-68
2022/06/03 07:39:30;;;;;;;3.83;3.20;;;;;;;21.40;100.00;96384.56;4916876;28;104962;-68
2022/06/03 07:42:07;;;;;;;4.00;2.80;;;;;;;20.90;100.00;96394.22;4923752;28;103792;-68
2022/06/03 07:44:43;;;;;;;2.90;2.70;;;;;;;20.94;100.00;96387.88;4917438;28;102009;-68
2022/06/03 07:47:11;;;;;;;3.10;2.80;;;;;;;21.49;100.00;96390.78;4911400;28;105311;-69
2022/06/03 07:49:58;;;;;;;2.77;2.57;;;;;;;21.51;100.00;96391.25;4915840;28;103491;-67
2022/06/03 07:52:32;;;;;;;3.67;2.70;;;;;;;21.89;100.00;96384.06;4912210;28;101920;-68
2022/06/03 07:55:16;;;;;;;2.93;2.70;;;;;;;21.65;100.00;96379.16;4933227;28;104874;-67
2022/06/03 07:57:50;;;;;;;2.60;2.40;;;;;;;21.60;100.00;96371.19;4930019;28;101902;-66
2022/06/03 08:00:20;;;;;;;4.43;2.83;;;;;;;22.00;100.00;96378.00;4930388;28;105644;-67
2022/06/03 08:02:48;;;;;;;2.80;2.53;;;;;;;22.09;100.00;96372.56;4925307;28;105460;-67
2022/06/03 08:05:19;;;;;;;3.20;2.60;;;;;;;22.35;100.00;96373.25;4918314;28;102069;-66
2022/06/03 08:11:00;;;;;;;2.57;2.37;;;;;;;23.09;100.00;96379.72;4910500;28;106205;-68
2022/06/03 08:13:31;;;;;;;2.13;2.03;;;;;;;23.25;100.00;96369.91;4911576;28;101916;-68
2022/06/03 08:16:29;;;;;;;2.73;2.30;;;;;;;23.15;100.00;96370.31;4927882;28;105569;-68
2022/06/03 08:19:09;;;;;;;3.03;2.47;;;;;;;23.59;100.00;96364.22;4915118;28;102736;-67
2022/06/03 08:21:41;;;;;;;3.70;2.13;;;;;;;23.81;100.00;96364.63;4915504;28;105385;-68
2022/06/03 08:24:12;;;;;;;3.03;2.10;;;;;;;23.54;100.00;96365.19;4929873;28;105747;-67
2022/06/03 08:26:43;;;;;;;2.20;2.10;;;;;;;23.83;100.00;96356.16;4925111;28;102004;-68
2022/06/03 08:29:16;;;;;;;3.43;2.20;;;;;;;23.80;100.00;96351.38;4911092;28;105027;-67
2022/06/03 08:31:45;;;;;;;2.33;2.13;;;;;;;24.32;100.00;96355.16;4915243;28;104142;-68
2022/06/03 08:34:23;;;;;;;4.23;2.20;;;;;;;24.26;100.00;96348.34;4930047;28;101937;-67
2022/06/03 08:36:53;;;;;;;3.37;2.27;;;;;;;24.49;100.00;96336.72;4924294;28;105106;-67
2022/06/03 08:39:23;;;;;;;2.23;2.13;;;;;;;25.00;100.00;96340.66;4910196;28;105473;-68
2022/06/03 08:42:10;;;;;;;2.30;2.13;;;;;;;25.26;100.00;96327.47;4927353;28;101947;-68
2022/06/03 08:45:12;;;;;;;2.40;2.00;;;;;;;25.11;100.00;96325.47;4929261;28;105206;-67
2022/06/03 08:47:54;;;;;;;3.53;1.77;;;;;;;25.41;100.00;96326.75;4930612;28;101992;-68
2022/06/03 08:50:39;;;;;;;2.03;1.93;;;;;;;25.10;100.00;96324.66;4929574;28;105531;-68
2022/06/03 08:53:09;;;;;;;1.90;1.80;;;;;;;25.63;100.00;96320.75;4909967;28;104259;-67
2022/06/03 08:56:17;;;;;;;4.60;2.07;;;;;;;25.71;100.00;96317.09;4913034;28;101871;-68
2022/06/03 08:58:54;;;;;;;2.50;2.00;;;;;;;26.11;100.00;96310.41;4929932;28;105864;-67
2022/06/03 09:01:33;;;;;;;2.03;1.87;;;;;;;26.23;100.00;96315.00;4920742;28;105119;-68
2022/06/03 09:04:12;;;;;;;2.10;2.00;;;;;;;26.34;100.00;96313.31;4910334;28;102115;-68
2022/06/03 09:06:47;;;;;;;1.97;1.80;;;;;;;26.23;100.00;96313.06;4924012;28;104956;-68
2022/06/03 09:09:25;;;;;;;2.03;1.80;;;;;;;26.39;100.00;96318.50;4929614;28;101812;-68
2022/06/03 09:12:01;;;;;;;2.33;1.70;;;;;;;26.55;100.00;96311.94;4918754;28;103269;-67
2022/06/03 09:14:34;;;;;;;1.53;1.43;;;;;;;26.60;100.00;96308.91;4909624;28;104092;-68
2022/06/03 09:17:07;;;;;;;1.40;1.40;;;;;;;26.61;100.00;96307.78;4925477;28;101910;-67
2022/06/03 09:19:46;;;;;;;1.50;1.47;;;;;;;26.92;100.00;96302.25;4929738;28;104991;-67
2022/06/03 09:22:21;;;;;;;1.57;1.47;;;;;;;27.11;100.00;96305.03;4911519;28;105985;-67
2022/06/03 09:24:56;;;;;;;1.73;1.63;;;;;;;27.34;100.00;96299.66;4925477;28;101763;-67
2022/06/03 09:27:25;;;;;;;1.30;1.30;;;;;;;27.32;100.00;96304.72;4892154;28;105225;-68
2022/06/03 09:29:58;;;;;;;1.50;1.40;;;;;;;27.73;100.00;96304.75;4928417;28;103801;-68
2022/06/03 09:32:27;;;;;;;1.70;1.50;;;;;;;27.69;100.00;96305.84;4933024;28;105082;-67
2022/06/03 09:35:01;;;;;;;1.47;1.23;;;;;;;27.72;100.00;96305.13;4916365;28;105102;-68
2022/06/03 09:37:33;;;;;;;1.70;1.60;;;;;;;27.31;98.90;96297.69;4894264;28;101851;-68
2022/06/03 09:40:02;;;;;;;1.50;1.40;;;;;;;27.68;100.00;96296.84;4909889;28;104876;-67
2022/06/03 09:42:33;;;;;;;1.50;1.40;;;;;;;26.47;100.00;96298.44;4914096;28;102674;-67
2022/06/03 09:45:21;;;;;;;1.50;1.40;;;;;;;26.94;100.00;96282.81;4928624;28;101861;-67
2022/06/03 09:48:04;;;;;;;2.03;1.50;;;;;;;26.84;100.00;96277.91;4894028;28;105309;-68
2022/06/03 09:50:33;;;;;;;1.47;1.37;;;;;;;26.16;100.00;96284.84;4935109;28;105399;-67
2022/06/03 09:53:04;;;;;;;1.57;1.30;;;;;;;26.64;100.00;96284.47;4918426;28;105507;-67
2022/06/03 09:55:48;;;;;;;1.30;1.30;;;;;;;27.37;100.00;96282.56;4916342;28;104253;-67
2022/06/03 09:58:21;;;;;;;1.20;1.20;;;;;;;27.97;100.00;96279.06;4932658;28;101856;-67
2022/06/03 10:00:51;;;;;;;1.30;1.30;;;;;;;28.17;100.00;96272.41;4931829;28;103970;-68
2022/06/03 10:03:20;;;;;;;2.40;1.40;;;;;;;28.53;100.00;96269.91;4933252;28;102720;-67
2022/06/03 10:06:03;;;;;;;1.90;1.67;;;;;;;28.95;98.69;96264.25;4926700;28;101878;-67
2022/06/03 10:12:48;;;;;;;1.50;1.40;;;;;;;29.17;97.66;96250.50;4924777;28;105506;-67
2022/06/03 10:14:06;;;;;;;1.67;1.30;;;;;;;29.56;92.21;96240.00;4916059;28;102323;-67
2022/06/03 10:16:35;;;;;;;1.70;1.25;;;;;;;29.53;92.23;96238.00;4919508;28;105283;-66
2022/06/03 10:19:13;;;;;;;1.83;1.73;;;;;;;29.02;96.49;96229.56;4914504;28;102190;-64
2022/06/03 10:21:51;;;;;;;1.63;1.42;;;;;;;29.65;92.76;96230.31;4923750;28;104114;-65
2022/06/03 10:24:43;;;;;;;1.88;1.30;;;;;;;29.69;91.89;96227.63;4923307;28;105593;-65
2022/06/03 10:27:10;;;;;;;1.52;1.35;;;;;;;29.86;88.13;96227.78;4928142;28;101927;-65
2022/06/03 10:29:47;;;;;;;1.63;1.40;;;;;;;30.15;86.37;96226.13;4922914;28;104215;-66
2022/06/03 10:32:19;;;;;;;1.80;1.50;;;;;;;30.20;81.51;96228.53;4911953;28;103215;-66
2022/06/03 10:34:57;;;;;;;1.70;1.50;;;;;;;29.82;84.79;96221.50;4922738;28;102019;-66
2022/06/03 10:37:26;;;;;;;1.58;1.48;;;;;;;29.81;89.97;96221.88;4917522;28;101924;-66
2022/06/03 10:39:56;;;;;;;1.20;1.00;;;;;;;30.15;82.68;96209.66;4922528;28;102052;-66
2022/06/03 10:42:24;;;;;;;2.85;1.90;;;;;;;30.18;83.27;96208.94;4931914;28;105872;-66
2022/06/03 10:45:10;;;;;;;2.30;1.40;;;;;;;30.26;75.02;96205.84;4922857;28;102884;-65
2022/06/03 10:47:50;;;;;;;1.75;1.50;;;;;;;30.67;74.39;96203.81;4931658;28;101904;-65
2022/06/03 10:50:28;;;;;;;2.35;1.40;;;;;;;30.87;79.38;96194.09;4926812;28;105586;-66
2022/06/03 11:01:43;;;;;;;1.80;1.35;;;;;;;30.76;77.61;96202.28;4906772;28;105280;-68
2022/06/03 11:04:25;;;;;;;1.35;1.25;;;;;;;30.56;75.20;96186.47;4930724;28;103956;-68
2022/06/03 11:06:52;;;;;;;1.30;1.20;;;;;;;30.65;79.47;96184.97;4930201;28;105468;-67
2022/06/03 11:09:22;;;;;;;2.67;1.60;;;;;;;31.11;76.69;96177.72;4932670;28;101874;-68
2022/06/03 11:11:52;;;;;;;1.40;1.17;;;;;;;31.25;73.26;96179.78;4929697;28;104881;-68
2022/06/03 11:14:29;;;;;;;2.20;1.20;;;;;;;31.48;73.15;96183.78;4930297;28;104204;-67
2022/06/03 11:17:03;;;;;;;1.20;1.10;;;;;;;31.56;64.41;96184.56;4921227;28;101915;-68
2022/06/03 11:19:47;;;;;;;1.45;1.10;;;;;;;31.47;65.98;96181.41;4931145;28;104126;-70
2022/06/03 11:22:20;;;;;;;1.95;1.00;;;;;;;31.77;58.92;96174.41;4912567;28;105685;-68
2022/06/03 11:25:02;;;;;;;1.20;1.15;;;;;;;32.42;56.64;96172.06;4914911;28;102389;-69
2022/06/03 11:27:39;;;;;;;1.10;1.10;;;;;;;32.50;55.97;96181.91;4918095;28;105629;-69
2022/06/03 11:30:12;;;;;;;1.02;1.02;;;;;;;32.23;56.06;96168.94;4932404;28;101744;-68
2022/06/03 11:32:43;;;;;;;1.25;1.15;;;;;;;32.53;57.94;96174.84;4929317;28;105649;-68
2022/06/03 11:35:25;;;;;;;1.38;1.20;;;;;;;32.73;59.38;96185.00;4911768;28;105791;-68
2022/06/03 11:37:55;;;;;;;1.70;1.17;;;;;;;32.55;55.02;96175.22;4925591;28;102351;-70
2022/06/03 11:40:26;;;;;;;2.10;1.23;;;;;;;32.43;57.36;96178.38;4930789;28;105449;-67
2022/06/03 11:43:06;;;;;;;1.80;1.40;;;;;;;32.50;56.92;96176.41;4914450;28;104407;-69
2022/06/03 11:45:44;;;;;;;1.27;1.20;;;;;;;32.22;58.34;96170.13;4911282;28;102440;-69
2022/06/03 11:48:45;;;;;;;1.40;1.30;;;;;;;32.44;54.75;96169.72;4914478;28;103987;-70
2022/06/03 11:51:15;;;;;;;1.80;1.10;;;;;;;32.69;51.79;96172.44;4912968;28;102127;-70
2022/06/03 11:53:47;;;;;;;2.05;1.27;;;;;;;32.87;48.71;96168.47;4916742;28;105346;-69
2022/06/03 11:57:00;;;;;;;1.23;0.93;;;;;;;32.51;49.58;96169.72;4931445;28;103108;-69
2022/06/03 11:59:34;;;;;;;2.45;0.90;;;;;;;32.32;58.35;96166.59;4919231;28;102426;-69
2022/06/03 12:02:10;;;;;;;5.05;1.40;;;;;;;32.50;57.19;96159.88;4911229;28;105038;-69
2022/06/03 12:04:50;;;;;;;1.63;1.00;;;;;;;32.84;51.59;96165.72;4913377;28;105388;-69
2022/06/03 12:07:34;;;;;;;1.50;1.00;;;;;;;33.03;48.44;96157.00;4911220;28;102061;-69
2022/06/03 12:10:06;;;;;;;1.85;1.15;;;;;;;33.03;47.91;96157.78;4913839;28;105167;-68
2022/06/03 12:16:00;;;;;;;1.90;1.30;;;;;;;32.49;50.47;96154.78;4928887;28;105458;-70
2022/06/03 12:21:56;;;;;;;1.17;0.93;;;;;;;32.98;54.34;96146.38;4910856;28;101903;-68
2022/06/03 12:24:47;;;;;;;1.05;1.00;;;;;;;33.43;49.72;96148.16;4922955;28;103892;-70
2022/06/03 12:27:24;;;;;;;1.50;1.20;;;;;;;33.28;51.05;96141.16;4929554;28;105777;-69
2022/06/03 12:30:31;;;;;;;1.00;1.00;;;;;;;32.86;50.01;96136.59;4914098;28;101792;-70
2022/06/03 12:33:00;;;;;;;1.15;1.05;;;;;;;32.77;51.56;96116.16;4910797;28;105475;-69
2022/06/03 12:39:20;;;;;;;1.20;1.10;;;;;;;32.41;52.44;96123.72;4922987;28;105586;-66
2022/06/03 12:42:05;;;;;;;1.02;1.00;;;;;;;32.02;57.60;96113.91;4904616;28;105405;-67
2022/06/03 12:45:17;;;;;;;0.98;0.98;;;;;;;32.21;54.83;96116.25;4922239;28;102317;-67
2022/06/03 12:47:47;;;;;;;1.52;1.00;;;;;;;32.41;55.85;96114.69;4850701;28;105272;-68
2022/06/03 12:50:34;;;;;;;1.55;1.17;;;;;;;32.23;56.58;96116.63;4911012;28;103250;-68
2022/06/03 12:53:33;;;;;;;4.22;1.20;;;;;;;32.22;54.03;96113.13;4910772;28;101878;-67
2022/06/03 12:56:52;;;;;;;1.58;1.30;;;;;;;32.27;57.13;96117.44;4908656;28;105685;-67
2022/06/03 12:59:29;;;;;;;1.83;1.10;;;;;;;32.07;57.93;96113.50;4910004;28;105412;-67
2022/06/03 13:02:05;;;;;;;3.53;1.20;;;;;;;31.71;64.24;96109.94;4914502;28;101920;-67
2022/06/03 13:04:46;;;;;;;2.45;1.30;;;;;;;31.65;68.47;96103.28;4909253;28;106002;-67
2022/06/03 13:07:30;;;;;;;1.55;1.20;;;;;;;31.64;65.25;96098.16;4895493;28;103833;-67
2022/06/03 13:10:24;;;;;;;1.30;1.30;;;;;;;31.71;67.13;96092.69;4838626;29;105350;-67
2022/06/03 13:12:54;;;;;;;2.30;1.35;;;;;;;31.42;71.80;96097.38;4833504;29;105248;-74
2022/06/03 13:16:08;;;;;;;1.30;1.20;;;;;;;31.40;76.35;96098.94;4850526;29;103654;-73
2022/06/03 13:18:45;;;;;;;1.65;1.55;;;;;;;31.41;73.88;96089.50;4831029;29;105361;-66
2022/06/03 13:21:23;;;;;;;1.98;1.80;;;;;;;31.06;74.90;96089.41;4838912;29;105675;-64
2022/06/03 13:24:21;;;;;;;1.90;1.65;;;;;;;30.88;78.33;96085.81;4856790;28;101925;-71
2022/06/03 13:27:08;;;;;;;2.00;1.50;;;;;;;31.03;82.05;96080.00;4858067;28;102366;-67
2022/06/03 13:30:05;;;;;;;1.77;1.60;;;;;;;30.97;86.07;96073.31;4829692;29;102254;-72
2022/06/03 13:32:59;;;;;;;1.95;1.65;;;;;;;31.07;85.99;96080.78;4821758;29;105468;-67
2022/06/03 13:36:01;;;;;;;1.75;1.63;;;;;;;31.08;84.68;96082.38;4833074;29;105546;-72